sensor_id;sensor_type;location;lat;lon;timestamp;P1;durP1;ratioP1;P2;durP2;ratioP2
20711;SDS011;10517;50.742;4.224;2023-07-28T00:01:30;6.10;;;5.20;;
20711;SDS011;10517;50.742;4.224;2023-07-28T00:03:56;6.07;;;5.63;;
20711;SDS011;10517;50.742;4.224;2023-07-28T00:06:22;5.80;;;5.40;;
20711;SDS011;10517;50.742;4.224;2023-07-28T00:08:48;5.93;;;5.15;;
20711;SDS011;10517;50.742;4.224;2023-07-28T00:11:15;5.82;;;5.20;;
20711;SDS011;10517;50.742;4.224;2023-07-28T00:13:41;6.15;;;5.65;;
20711;SDS011;10517;50.742;4.224;2023-07-28T00:16:08;6.63;;;6.00;;
20711;SDS011;10517;50.742;4.224;2023-07-28T00:18:34;6.10;;;5.70;;
20711;SDS011;10517;50.742;4.224;2023-07-28T00:21:00;6.05;;;5.60;;
20711;SDS011;10517;50.742;4.224;2023-07-28T00:23:25;8.77;;;6.32;;
20711;SDS011;10517;50.742;4.224;2023-07-28T00:25:52;10.45;;;6.28;;
20711;SDS011;10517;50.742;4.224;2023-07-28T00:28:17;8.45;;;6.18;;
20711;SDS011;10517;50.742;4.224;2023-07-28T00:30:43;6.70;;;5.78;;
20711;SDS011;10517;50.742;4.224;2023-07-28T00:33:08;6.00;;;5.43;;
20711;SDS011;10517;50.742;4.224;2023-07-28T00:35:34;6.85;;;5.70;;
20711;SDS011;10517;50.742;4.224;2023-07-28T00:38:00;5.50;;;5.07;;
20711;SDS011;10517;50.742;4.224;2023-07-28T00:40:25;6.18;;;5.68;;
20711;SDS011;10517;50.742;4.224;2023-07-28T00:42:51;8.73;;;4.95;;
20711;SDS011;10517;50.742;4.224;2023-07-28T00:45:17;6.00;;;4.80;;
20711;SDS011;10517;50.742;4.224;2023-07-28T00:47:42;5.18;;;4.78;;
20711;SDS011;10517;50.742;4.224;2023-07-28T00:50:08;6.55;;;4.80;;
20711;SDS011;10517;50.742;4.224;2023-07-28T00:52:35;5.63;;;5.22;;
20711;SDS011;10517;50.742;4.224;2023-07-28T00:55:01;6.20;;;5.18;;
20711;SDS011;10517;50.742;4.224;2023-07-28T00:57:27;5.25;;;4.93;;
20711;SDS011;10517;50.742;4.224;2023-07-28T00:59:53;5.40;;;4.93;;
20711;SDS011;10517;50.742;4.224;2023-07-28T01:02:19;5.25;;;4.85;;
20711;SDS011;10517;50.742;4.224;2023-07-28T01:04:45;5.88;;;5.05;;
20711;SDS011;10517;50.742;4.224;2023-07-28T01:10:07;6.65;;;4.75;;
20711;SDS011;10517;50.742;4.224;2023-07-28T01:12:36;6.25;;;4.88;;
20711;SDS011;10517;50.742;4.224;2023-07-28T01:15:02;10.98;;;4.28;;
20711;SDS011;10517;50.742;4.224;2023-07-28T01:17:28;4.82;;;4.35;;
20711;SDS011;10517;50.742;4.224;2023-07-28T01:19:54;9.07;;;4.20;;
20711;SDS011;10517;50.742;4.224;2023-07-28T01:27:45;6.00;;;5.45;;
20711;SDS011;10517;50.742;4.224;2023-07-28T01:30:11;8.27;;;4.45;;
20711;SDS011;10517;50.742;4.224;2023-07-28T01:32:37;7.10;;;4.15;;
20711;SDS011;10517;50.742;4.224;2023-07-28T01:35:03;5.13;;;3.88;;
20711;SDS011;10517;50.742;4.224;2023-07-28T01:37:29;7.68;;;3.88;;
20711;SDS011;10517;50.742;4.224;2023-07-28T01:39:55;4.25;;;3.88;;
20711;SDS011;10517;50.742;4.224;2023-07-28T01:42:22;5.93;;;4.00;;
20711;SDS011;10517;50.742;4.224;2023-07-28T01:44:48;4.57;;;4.28;;
20711;SDS011;10517;50.742;4.224;2023-07-28T01:47:14;4.32;;;4.03;;
20711;SDS011;10517;50.742;4.224;2023-07-28T01:49:39;4.90;;;4.35;;
20711;SDS011;10517;50.742;4.224;2023-07-28T01:52:05;4.50;;;4.20;;
20711;SDS011;10517;50.742;4.224;2023-07-28T01:54:30;5.35;;;4.78;;
20711;SDS011;10517;50.742;4.224;2023-07-28T01:56:56;6.65;;;5.35;;
20711;SDS011;10517;50.742;4.224;2023-07-28T01:59:22;5.32;;;4.90;;
20711;SDS011;10517;50.742;4.224;2023-07-28T02:01:47;4.97;;;4.65;;
20711;SDS011;10517;50.742;4.224;2023-07-28T02:04:13;4.68;;;4.25;;
20711;SDS011;10517;50.742;4.224;2023-07-28T02:06:39;9.88;;;4.63;;
20711;SDS011;10517;50.742;4.224;2023-07-28T02:09:04;4.80;;;4.25;;
20711;SDS011;10517;50.742;4.224;2023-07-28T02:11:30;6.78;;;4.78;;
20711;SDS011;10517;50.742;4.224;2023-07-28T02:13:55;8.65;;;5.35;;
20711;SDS011;10517;50.742;4.224;2023-07-28T02:16:21;7.88;;;4.55;;
20711;SDS011;10517;50.742;4.224;2023-07-28T02:18:46;4.97;;;4.47;;
20711;SDS011;10517;50.742;4.224;2023-07-28T02:21:12;5.22;;;4.78;;
20711;SDS011;10517;50.742;4.224;2023-07-28T02:23:38;5.15;;;4.65;;
20711;SDS011;10517;50.742;4.224;2023-07-28T02:26:03;7.50;;;4.70;;
20711;SDS011;10517;50.742;4.224;2023-07-28T02:28:29;6.90;;;4.80;;
20711;SDS011;10517;50.742;4.224;2023-07-28T02:30:54;7.55;;;4.47;;
20711;SDS011;10517;50.742;4.224;2023-07-28T02:33:20;4.82;;;4.32;;
20711;SDS011;10517;50.742;4.224;2023-07-28T02:35:45;5.03;;;4.50;;
20711;SDS011;10517;50.742;4.224;2023-07-28T02:38:11;7.15;;;5.43;;
20711;SDS011;10517;50.742;4.224;2023-07-28T02:40:36;6.40;;;4.53;;
20711;SDS011;10517;50.742;4.224;2023-07-28T02:43:02;9.90;;;5.30;;
20711;SDS011;10517;50.742;4.224;2023-07-28T02:45:27;5.03;;;4.68;;
20711;SDS011;10517;50.742;4.224;2023-07-28T02:47:53;4.55;;;4.07;;
20711;SDS011;10517;50.742;4.224;2023-07-28T02:50:18;9.30;;;4.35;;
20711;SDS011;10517;50.742;4.224;2023-07-28T02:52:44;11.82;;;4.65;;
20711;SDS011;10517;50.742;4.224;2023-07-28T02:55:10;6.13;;;4.60;;
20711;SDS011;10517;50.742;4.224;2023-07-28T02:57:35;5.93;;;5.28;;
20711;SDS011;10517;50.742;4.224;2023-07-28T03:00:01;5.28;;;4.85;;
20711;SDS011;10517;50.742;4.224;2023-07-28T03:02:27;4.75;;;4.38;;
20711;SDS011;10517;50.742;4.224;2023-07-28T03:04:53;5.75;;;5.25;;
20711;SDS011;10517;50.742;4.224;2023-07-28T03:07:19;5.57;;;4.95;;
20711;SDS011;10517;50.742;4.224;2023-07-28T03:09:44;6.82;;;4.68;;
20711;SDS011;10517;50.742;4.224;2023-07-28T03:12:10;5.07;;;4.68;;
20711;SDS011;10517;50.742;4.224;2023-07-28T03:14:36;5.13;;;4.68;;
20711;SDS011;10517;50.742;4.224;2023-07-28T03:17:01;6.75;;;4.65;;
20711;SDS011;10517;50.742;4.224;2023-07-28T03:19:27;5.03;;;4.53;;
20711;SDS011;10517;50.742;4.224;2023-07-28T03:21:53;7.20;;;3.85;;
20711;SDS011;10517;50.742;4.224;2023-07-28T03:24:18;6.57;;;4.20;;
20711;SDS011;10517;50.742;4.224;2023-07-28T03:26:44;4.18;;;3.88;;
20711;SDS011;10517;50.742;4.224;2023-07-28T03:29:09;5.45;;;3.75;;
20711;SDS011;10517;50.742;4.224;2023-07-28T03:31:35;8.98;;;4.07;;
20711;SDS011;10517;50.742;4.224;2023-07-28T03:34:01;4.35;;;4.05;;
20711;SDS011;10517;50.742;4.224;2023-07-28T03:36:27;4.25;;;3.95;;
20711;SDS011;10517;50.742;4.224;2023-07-28T03:38:53;6.32;;;3.70;;
20711;SDS011;10517;50.742;4.224;2023-07-28T03:41:18;4.80;;;4.25;;
20711;SDS011;10517;50.742;4.224;2023-07-28T03:43:44;6.90;;;3.67;;
20711;SDS011;10517;50.742;4.224;2023-07-28T03:46:10;3.97;;;3.75;;
20711;SDS011;10517;50.742;4.224;2023-07-28T03:48:36;4.57;;;3.78;;
20711;SDS011;10517;50.742;4.224;2023-07-28T03:51:02;4.97;;;3.80;;
20711;SDS011;10517;50.742;4.224;2023-07-28T03:53:27;4.30;;;3.90;;
20711;SDS011;10517;50.742;4.224;2023-07-28T03:55:53;4.00;;;3.70;;
20711;SDS011;10517;50.742;4.224;2023-07-28T03:58:22;5.75;;;3.40;;
20711;SDS011;10517;50.742;4.224;2023-07-28T04:00:51;4.93;;;3.53;;
20711;SDS011;10517;50.742;4.224;2023-07-28T04:03:18;4.50;;;3.90;;
20711;SDS011;10517;50.742;4.224;2023-07-28T04:05:44;4.15;;;3.85;;
20711;SDS011;10517;50.742;4.224;2023-07-28T04:08:10;3.97;;;3.67;;
20711;SDS011;10517;50.742;4.224;2023-07-28T04:10:35;4.90;;;3.95;;
20711;SDS011;10517;50.742;4.224;2023-07-28T04:13:01;4.45;;;3.28;;
20711;SDS011;10517;50.742;4.224;2023-07-28T04:15:26;3.90;;;3.50;;
20711;SDS011;10517;50.742;4.224;2023-07-28T04:17:52;5.07;;;3.42;;
20711;SDS011;10517;50.742;4.224;2023-07-28T04:20:17;6.45;;;3.63;;
20711;SDS011;10517;50.742;4.224;2023-07-28T04:22:43;4.68;;;3.75;;
20711;SDS011;10517;50.742;4.224;2023-07-28T04:25:08;3.38;;;2.92;;
20711;SDS011;10517;50.742;4.224;2023-07-28T04:27:34;4.47;;;4.07;;
20711;SDS011;10517;50.742;4.224;2023-07-28T04:30:00;4.55;;;3.10;;
20711;SDS011;10517;50.742;4.224;2023-07-28T04:32:26;5.05;;;3.55;;
20711;SDS011;10517;50.742;4.224;2023-07-28T04:34:51;6.15;;;4.07;;
20711;SDS011;10517;50.742;4.224;2023-07-28T04:37:18;4.03;;;3.65;;
20711;SDS011;10517;50.742;4.224;2023-07-28T04:39:44;5.90;;;3.92;;
20711;SDS011;10517;50.742;4.224;2023-07-28T04:42:09;4.22;;;3.83;;
20711;SDS011;10517;50.742;4.224;2023-07-28T04:44:36;3.63;;;3.33;;
20711;SDS011;10517;50.742;4.224;2023-07-28T04:47:04;4.15;;;3.85;;
20711;SDS011;10517;50.742;4.224;2023-07-28T04:49:30;4.18;;;2.85;;
20711;SDS011;10517;50.742;4.224;2023-07-28T04:51:56;4.28;;;3.95;;
20711;SDS011;10517;50.742;4.224;2023-07-28T04:54:21;7.22;;;4.88;;
20711;SDS011;10517;50.742;4.224;2023-07-28T04:56:47;3.85;;;3.55;;
20711;SDS011;10517;50.742;4.224;2023-07-28T04:59:14;3.55;;;3.25;;
20711;SDS011;10517;50.742;4.224;2023-07-28T05:01:40;7.63;;;3.50;;
20711;SDS011;10517;50.742;4.224;2023-07-28T05:04:06;3.38;;;3.17;;
20711;SDS011;10517;50.742;4.224;2023-07-28T05:06:31;5.05;;;3.20;;
20711;SDS011;10517;50.742;4.224;2023-07-28T05:08:57;6.20;;;3.53;;
20711;SDS011;10517;50.742;4.224;2023-07-28T05:11:22;3.22;;;3.03;;
20711;SDS011;10517;50.742;4.224;2023-07-28T05:13:48;8.30;;;3.38;;
20711;SDS011;10517;50.742;4.224;2023-07-28T05:16:13;3.78;;;3.53;;
20711;SDS011;10517;50.742;4.224;2023-07-28T05:18:39;4.70;;;3.72;;
20711;SDS011;10517;50.742;4.224;2023-07-28T05:21:07;4.53;;;3.60;;
20711;SDS011;10517;50.742;4.224;2023-07-28T05:23:33;3.80;;;3.50;;
20711;SDS011;10517;50.742;4.224;2023-07-28T05:25:59;3.40;;;3.10;;
20711;SDS011;10517;50.742;4.224;2023-07-28T05:28:24;3.30;;;3.00;;
20711;SDS011;10517;50.742;4.224;2023-07-28T05:30:50;3.10;;;2.90;;
20711;SDS011;10517;50.742;4.224;2023-07-28T05:33:15;3.67;;;3.10;;
20711;SDS011;10517;50.742;4.224;2023-07-28T05:35:41;3.10;;;2.90;;
20711;SDS011;10517;50.742;4.224;2023-07-28T05:38:07;4.20;;;3.50;;
20711;SDS011;10517;50.742;4.224;2023-07-28T05:40:32;3.28;;;3.08;;
20711;SDS011;10517;50.742;4.224;2023-07-28T05:42:58;6.60;;;3.83;;
20711;SDS011;10517;50.742;4.224;2023-07-28T05:45:23;5.00;;;3.58;;
20711;SDS011;10517;50.742;4.224;2023-07-28T05:47:49;4.72;;;3.83;;
20711;SDS011;10517;50.742;4.224;2023-07-28T05:50:14;4.07;;;3.53;;
20711;SDS011;10517;50.742;4.224;2023-07-28T05:52:40;4.50;;;3.50;;
20711;SDS011;10517;50.742;4.224;2023-07-28T05:55:05;4.20;;;3.83;;
20711;SDS011;10517;50.742;4.224;2023-07-28T05:57:31;4.45;;;4.05;;
20711;SDS011;10517;50.742;4.224;2023-07-28T05:59:57;4.38;;;3.97;;
20711;SDS011;10517;50.742;4.224;2023-07-28T06:02:23;5.03;;;4.57;;
20711;SDS011;10517;50.742;4.224;2023-07-28T06:04:48;4.78;;;4.45;;
20711;SDS011;10517;50.742;4.224;2023-07-28T06:07:14;4.18;;;3.88;;
20711;SDS011;10517;50.742;4.224;2023-07-28T06:09:40;7.55;;;4.97;;
20711;SDS011;10517;50.742;4.224;2023-07-28T06:12:06;5.30;;;4.85;;
20711;SDS011;10517;50.742;4.224;2023-07-28T06:14:31;8.45;;;4.47;;
20711;SDS011;10517;50.742;4.224;2023-07-28T06:16:57;5.10;;;4.80;;
20711;SDS011;10517;50.742;4.224;2023-07-28T06:19:23;5.47;;;5.03;;
20711;SDS011;10517;50.742;4.224;2023-07-28T06:21:51;4.82;;;4.50;;
20711;SDS011;10517;50.742;4.224;2023-07-28T06:24:18;4.57;;;4.18;;
20711;SDS011;10517;50.742;4.224;2023-07-28T06:26:44;4.70;;;4.30;;
20711;SDS011;10517;50.742;4.224;2023-07-28T06:29:09;4.80;;;4.50;;
20711;SDS011;10517;50.742;4.224;2023-07-28T06:31:35;4.32;;;4.03;;
20711;SDS011;10517;50.742;4.224;2023-07-28T06:34:00;5.15;;;4.65;;
20711;SDS011;10517;50.742;4.224;2023-07-28T06:36:26;4.85;;;4.55;;
20711;SDS011;10517;50.742;4.224;2023-07-28T06:38:52;5.43;;;3.95;;
20711;SDS011;10517;50.742;4.224;2023-07-28T06:41:20;4.05;;;3.65;;
20711;SDS011;10517;50.742;4.224;2023-07-28T06:43:46;3.45;;;3.25;;
20711;SDS011;10517;50.742;4.224;2023-07-28T06:46:13;4.10;;;3.80;;
20711;SDS011;10517;50.742;4.224;2023-07-28T06:48:39;4.55;;;4.25;;
20711;SDS011;10517;50.742;4.224;2023-07-28T06:51:04;4.75;;;3.55;;
20711;SDS011;10517;50.742;4.224;2023-07-28T06:53:31;4.88;;;4.10;;
20711;SDS011;10517;50.742;4.224;2023-07-28T06:55:56;4.32;;;4.03;;
20711;SDS011;10517;50.742;4.224;2023-07-28T06:58:22;4.57;;;3.53;;
20711;SDS011;10517;50.742;4.224;2023-07-28T07:00:47;6.93;;;3.95;;
20711;SDS011;10517;50.742;4.224;2023-07-28T07:03:13;3.63;;;3.33;;
20711;SDS011;10517;50.742;4.224;2023-07-28T07:05:39;4.70;;;3.22;;
20711;SDS011;10517;50.742;4.224;2023-07-28T07:08:05;2.92;;;2.70;;
20711;SDS011;10517;50.742;4.224;2023-07-28T07:10:31;3.28;;;3.03;;
20711;SDS011;10517;50.742;4.224;2023-07-28T07:12:56;3.40;;;3.10;;
20711;SDS011;10517;50.742;4.224;2023-07-28T07:15:22;3.90;;;3.17;;
20711;SDS011;10517;50.742;4.224;2023-07-28T07:17:47;3.08;;;2.85;;
20711;SDS011;10517;50.742;4.224;2023-07-28T07:20:13;6.97;;;3.05;;
20711;SDS011;10517;50.742;4.224;2023-07-28T07:22:40;2.55;;;2.42;;
20711;SDS011;10517;50.742;4.224;2023-07-28T07:25:06;4.25;;;2.50;;
20711;SDS011;10517;50.742;4.224;2023-07-28T07:27:32;3.28;;;2.15;;
20711;SDS011;10517;50.742;4.224;2023-07-28T07:29:58;3.28;;;2.53;;
20711;SDS011;10517;50.742;4.224;2023-07-28T07:32:23;2.67;;;2.15;;
20711;SDS011;10517;50.742;4.224;2023-07-28T07:34:49;2.67;;;2.47;;
20711;SDS011;10517;50.742;4.224;2023-07-28T07:37:14;2.55;;;2.35;;
20711;SDS011;10517;50.742;4.224;2023-07-28T07:39:40;2.20;;;2.10;;
20711;SDS011;10517;50.742;4.224;2023-07-28T07:42:06;2.20;;;2.10;;
20711;SDS011;10517;50.742;4.224;2023-07-28T07:44:34;2.40;;;2.25;;
20711;SDS011;10517;50.742;4.224;2023-07-28T07:47:00;2.58;;;2.15;;
20711;SDS011;10517;50.742;4.224;2023-07-28T07:49:26;3.05;;;2.10;;
20711;SDS011;10517;50.742;4.224;2023-07-28T07:51:53;2.03;;;1.90;;
20711;SDS011;10517;50.742;4.224;2023-07-28T07:54:18;2.15;;;2.00;;
20711;SDS011;10517;50.742;4.224;2023-07-28T07:56:44;2.22;;;2.13;;
20711;SDS011;10517;50.742;4.224;2023-07-28T07:59:11;2.00;;;1.90;;
20711;SDS011;10517;50.742;4.224;2023-07-28T08:01:37;2.45;;;1.70;;
20711;SDS011;10517;50.742;4.224;2023-07-28T08:04:02;1.98;;;1.88;;
20711;SDS011;10517;50.742;4.224;2023-07-28T08:06:28;1.70;;;1.60;;
20711;SDS011;10517;50.742;4.224;2023-07-28T08:08:54;1.63;;;1.50;;
20711;SDS011;10517;50.742;4.224;2023-07-28T08:11:21;1.40;;;1.30;;
20711;SDS011;10517;50.742;4.224;2023-07-28T08:13:47;1.40;;;1.30;;
20711;SDS011;10517;50.742;4.224;2023-07-28T08:16:13;1.25;;;1.25;;
20711;SDS011;10517;50.742;4.224;2023-07-28T08:18:39;1.48;;;1.48;;
20711;SDS011;10517;50.742;4.224;2023-07-28T08:21:04;1.17;;;1.17;;
20711;SDS011;10517;50.742;4.224;2023-07-28T08:23:30;1.30;;;1.30;;
20711;SDS011;10517;50.742;4.224;2023-07-28T08:25:55;1.45;;;1.45;;
20711;SDS011;10517;50.742;4.224;2023-07-28T08:28:21;1.48;;;1.38;;
20711;SDS011;10517;50.742;4.224;2023-07-28T08:30:53;1.75;;;1.67;;
20711;SDS011;10517;50.742;4.224;2023-07-28T08:33:20;2.38;;;2.28;;
20711;SDS011;10517;50.742;4.224;2023-07-28T08:35:46;2.63;;;2.47;;
20711;SDS011;10517;50.742;4.224;2023-07-28T08:38:11;1.70;;;1.60;;
20711;SDS011;10517;50.742;4.224;2023-07-28T08:40:37;1.45;;;1.35;;
20711;SDS011;10517;50.742;4.224;2023-07-28T08:43:02;1.75;;;1.65;;
20711;SDS011;10517;50.742;4.224;2023-07-28T08:45:28;1.20;;;1.17;;
20711;SDS011;10517;50.742;4.224;2023-07-28T08:47:54;2.08;;;1.25;;
20711;SDS011;10517;50.742;4.224;2023-07-28T08:50:19;1.45;;;1.40;;
20711;SDS011;10517;50.742;4.224;2023-07-28T08:52:45;1.48;;;1.45;;
20711;SDS011;10517;50.742;4.224;2023-07-28T08:55:11;1.60;;;1.52;;
20711;SDS011;10517;50.742;4.224;2023-07-28T08:57:38;1.45;;;1.35;;
20711;SDS011;10517;50.742;4.224;2023-07-28T09:00:07;1.80;;;1.70;;
20711;SDS011;10517;50.742;4.224;2023-07-28T09:02:39;1.30;;;1.30;;
20711;SDS011;10517;50.742;4.224;2023-07-28T09:05:06;1.70;;;1.58;;
20711;SDS011;10517;50.742;4.224;2023-07-28T09:07:35;1.58;;;1.48;;
20711;SDS011;10517;50.742;4.224;2023-07-28T09:10:01;1.75;;;1.65;;
20711;SDS011;10517;50.742;4.224;2023-07-28T09:12:30;3.20;;;1.48;;
20711;SDS011;10517;50.742;4.224;2023-07-28T09:14:57;2.05;;;1.85;;
20711;SDS011;10517;50.742;4.224;2023-07-28T09:17:23;1.63;;;1.30;;
20711;SDS011;10517;50.742;4.224;2023-07-28T09:19:55;1.80;;;1.70;;
20711;SDS011;10517;50.742;4.224;2023-07-28T09:22:21;1.65;;;1.55;;
20711;SDS011;10517;50.742;4.224;2023-07-28T09:24:48;4.03;;;1.88;;
20711;SDS011;10517;50.742;4.224;2023-07-28T09:27:23;1.90;;;1.80;;
20711;SDS011;10517;50.742;4.224;2023-07-28T09:29:52;2.05;;;1.88;;
20711;SDS011;10517;50.742;4.224;2023-07-28T09:32:26;3.95;;;2.65;;
20711;SDS011;10517;50.742;4.224;2023-07-28T09:35:10;2.20;;;1.60;;
20711;SDS011;10517;50.742;4.224;2023-07-28T09:37:38;1.90;;;1.80;;
20711;SDS011;10517;50.742;4.224;2023-07-28T09:40:09;4.05;;;2.47;;
20711;SDS011;10517;50.742;4.224;2023-07-28T09:42:39;1.70;;;1.60;;
20711;SDS011;10517;50.742;4.224;2023-07-28T09:45:06;5.68;;;2.17;;
20711;SDS011;10517;50.742;4.224;2023-07-28T09:47:36;2.95;;;2.75;;
20711;SDS011;10517;50.742;4.224;2023-07-28T09:50:04;5.72;;;3.08;;
20711;SDS011;10517;50.742;4.224;2023-07-28T09:52:33;11.95;;;8.55;;
20711;SDS011;10517;50.742;4.224;2023-07-28T09:55:05;6.80;;;5.80;;
20711;SDS011;10517;50.742;4.224;2023-07-28T09:57:41;4.22;;;3.92;;
20711;SDS011;10517;50.742;4.224;2023-07-28T10:00:11;4.22;;;3.55;;
20711;SDS011;10517;50.742;4.224;2023-07-28T10:02:38;6.25;;;3.53;;
20711;SDS011;10517;50.742;4.224;2023-07-28T10:05:07;3.05;;;2.95;;
20711;SDS011;10517;50.742;4.224;2023-07-28T10:07:35;3.50;;;2.60;;
20711;SDS011;10517;50.742;4.224;2023-07-28T10:10:03;2.90;;;2.80;;
20711;SDS011;10517;50.742;4.224;2023-07-28T10:12:36;2.90;;;2.70;;
20711;SDS011;10517;50.742;4.224;2023-07-28T10:15:07;3.60;;;3.40;;
20711;SDS011;10517;50.742;4.224;2023-07-28T10:17:36;2.75;;;2.55;;
20711;SDS011;10517;50.742;4.224;2023-07-28T10:20:02;3.10;;;2.80;;
20711;SDS011;10517;50.742;4.224;2023-07-28T10:22:52;3.60;;;3.30;;
20711;SDS011;10517;50.742;4.224;2023-07-28T10:25:24;2.80;;;2.70;;
20711;SDS011;10517;50.742;4.224;2023-07-28T10:27:50;3.60;;;3.40;;
20711;SDS011;10517;50.742;4.224;2023-07-28T10:30:17;3.33;;;3.13;;
20711;SDS011;10517;50.742;4.224;2023-07-28T10:32:48;3.83;;;3.50;;
20711;SDS011;10517;50.742;4.224;2023-07-28T10:37:46;3.72;;;3.05;;
20711;SDS011;10517;50.742;4.224;2023-07-28T10:42:59;4.93;;;4.53;;
20711;SDS011;10517;50.742;4.224;2023-07-28T10:45:26;10.93;;;6.78;;
20711;SDS011;10517;50.742;4.224;2023-07-28T10:47:53;4.05;;;3.83;;
20711;SDS011;10517;50.742;4.224;2023-07-28T10:50:27;3.70;;;3.40;;
20711;SDS011;10517;50.742;4.224;2023-07-28T10:52:53;4.57;;;4.18;;
20711;SDS011;10517;50.742;4.224;2023-07-28T10:55:20;4.38;;;3.53;;
20711;SDS011;10517;50.742;4.224;2023-07-28T10:57:48;4.78;;;4.10;;
20711;SDS011;10517;50.742;4.224;2023-07-28T11:00:19;3.78;;;3.47;;
20711;SDS011;10517;50.742;4.224;2023-07-28T11:02:47;3.55;;;3.25;;
20711;SDS011;10517;50.742;4.224;2023-07-28T11:05:48;2.83;;;2.63;;
20711;SDS011;10517;50.742;4.224;2023-07-28T11:08:06;2.78;;;2.58;;
20711;SDS011;10517;50.742;4.224;2023-07-28T11:10:32;2.60;;;2.40;;
20711;SDS011;10517;50.742;4.224;2023-07-28T11:13:03;3.35;;;3.10;;
20711;SDS011;10517;50.742;4.224;2023-07-28T11:15:31;3.63;;;3.33;;
20711;SDS011;10517;50.742;4.224;2023-07-28T11:17:58;3.60;;;3.30;;
20711;SDS011;10517;50.742;4.224;2023-07-28T11:20:24;4.53;;;3.78;;
20711;SDS011;10517;50.742;4.224;2023-07-28T11:22:52;4.28;;;3.88;;
20711;SDS011;10517;50.742;4.224;2023-07-28T11:25:25;4.60;;;3.50;;
20711;SDS011;10517;50.742;4.224;2023-07-28T11:27:52;6.13;;;4.03;;
20711;SDS011;10517;50.742;4.224;2023-07-28T11:30:19;3.22;;;3.03;;
20711;SDS011;10517;50.742;4.224;2023-07-28T11:32:46;2.90;;;2.70;;
20711;SDS011;10517;50.742;4.224;2023-07-28T11:35:12;2.85;;;2.65;;
20711;SDS011;10517;50.742;4.224;2023-07-28T11:37:40;4.05;;;3.17;;
20711;SDS011;10517;50.742;4.224;2023-07-28T11:40:08;3.13;;;2.92;;
20711;SDS011;10517;50.742;4.224;2023-07-28T11:42:46;3.40;;;3.10;;
20711;SDS011;10517;50.742;4.224;2023-07-28T11:45:14;3.20;;;2.90;;
20711;SDS011;10517;50.742;4.224;2023-07-28T11:50:30;2.95;;;2.75;;
20711;SDS011;10517;50.742;4.224;2023-07-28T11:53:00;2.55;;;2.35;;
20711;SDS011;10517;50.742;4.224;2023-07-28T11:55:25;3.45;;;3.15;;
20711;SDS011;10517;50.742;4.224;2023-07-28T11:57:51;3.10;;;2.90;;
20711;SDS011;10517;50.742;4.224;2023-07-28T12:00:24;4.07;;;3.67;;
20711;SDS011;10517;50.742;4.224;2023-07-28T12:05:36;2.85;;;2.60;;
20711;SDS011;10517;50.742;4.224;2023-07-28T12:08:03;2.80;;;2.60;;
20711;SDS011;10517;50.742;4.224;2023-07-28T12:10:29;2.22;;;2.13;;
20711;SDS011;10517;50.742;4.224;2023-07-28T12:12:56;2.40;;;2.20;;
20711;SDS011;10517;50.742;4.224;2023-07-28T12:15:26;2.20;;;2.00;;
20711;SDS011;10517;50.742;4.224;2023-07-28T12:18:00;2.47;;;2.28;;
20711;SDS011;10517;50.742;4.224;2023-07-28T12:20:33;3.28;;;2.45;;
20711;SDS011;10517;50.742;4.224;2023-07-28T12:23:08;2.17;;;2.08;;
20711;SDS011;10517;50.742;4.224;2023-07-28T12:25:35;2.38;;;2.17;;
20711;SDS011;10517;50.742;4.224;2023-07-28T12:28:01;2.35;;;2.25;;
20711;SDS011;10517;50.742;4.224;2023-07-28T12:30:28;3.05;;;2.30;;
20711;SDS011;10517;50.742;4.224;2023-07-28T12:32:54;2.35;;;2.17;;
20711;SDS011;10517;50.742;4.224;2023-07-28T12:35:20;3.00;;;2.90;;
20711;SDS011;10517;50.742;4.224;2023-07-28T12:37:51;2.60;;;2.50;;
20711;SDS011;10517;50.742;4.224;2023-07-28T12:40:18;3.05;;;2.72;;
20711;SDS011;10517;50.742;4.224;2023-07-28T12:42:44;2.90;;;2.70;;
20711;SDS011;10517;50.742;4.224;2023-07-28T12:45:11;3.25;;;3.05;;
20711;SDS011;10517;50.742;4.224;2023-07-28T12:47:38;2.95;;;2.70;;
20711;SDS011;10517;50.742;4.224;2023-07-28T12:50:04;2.72;;;2.63;;
20711;SDS011;10517;50.742;4.224;2023-07-28T12:52:31;2.67;;;2.58;;
20711;SDS011;10517;50.742;4.224;2023-07-28T12:54:57;3.03;;;2.85;;
20711;SDS011;10517;50.742;4.224;2023-07-28T12:57:23;3.15;;;2.95;;
20711;SDS011;10517;50.742;4.224;2023-07-28T12:59:49;3.20;;;3.10;;
20711;SDS011;10517;50.742;4.224;2023-07-28T13:02:14;3.45;;;3.17;;
20711;SDS011;10517;50.742;4.224;2023-07-28T13:04:40;3.00;;;2.80;;
20711;SDS011;10517;50.742;4.224;2023-07-28T13:07:06;3.50;;;3.20;;
20711;SDS011;10517;50.742;4.224;2023-07-28T13:09:32;3.10;;;2.90;;
20711;SDS011;10517;50.742;4.224;2023-07-28T13:11:57;3.05;;;2.85;;
20711;SDS011;10517;50.742;4.224;2023-07-28T13:14:23;4.28;;;3.20;;
20711;SDS011;10517;50.742;4.224;2023-07-28T13:16:49;3.05;;;2.85;;
20711;SDS011;10517;50.742;4.224;2023-07-28T13:19:15;3.33;;;3.13;;
20711;SDS011;10517;50.742;4.224;2023-07-28T13:21:41;3.28;;;3.10;;
20711;SDS011;10517;50.742;4.224;2023-07-28T13:24:07;3.20;;;3.00;;
20711;SDS011;10517;50.742;4.224;2023-07-28T13:26:32;3.55;;;3.38;;
20711;SDS011;10517;50.742;4.224;2023-07-28T13:28:58;3.40;;;3.15;;
20711;SDS011;10517;50.742;4.224;2023-07-28T13:31:26;3.58;;;3.38;;
20711;SDS011;10517;50.742;4.224;2023-07-28T13:33:52;3.28;;;3.08;;
20711;SDS011;10517;50.742;4.224;2023-07-28T13:36:18;3.55;;;3.33;;
20711;SDS011;10517;50.742;4.224;2023-07-28T13:38:44;3.33;;;3.22;;
20711;SDS011;10517;50.742;4.224;2023-07-28T13:41:09;3.25;;;3.15;;
20711;SDS011;10517;50.742;4.224;2023-07-28T13:43:35;4.45;;;3.25;;
20711;SDS011;10517;50.742;4.224;2023-07-28T13:46:03;3.60;;;3.40;;
20711;SDS011;10517;50.742;4.224;2023-07-28T13:48:29;4.00;;;3.80;;
20711;SDS011;10517;50.742;4.224;2023-07-28T13:50:55;3.97;;;3.78;;
20711;SDS011;10517;50.742;4.224;2023-07-28T13:53:21;3.50;;;3.40;;
20711;SDS011;10517;50.742;4.224;2023-07-28T13:55:47;3.75;;;3.50;;
20711;SDS011;10517;50.742;4.224;2023-07-28T13:58:12;3.58;;;3.38;;
20711;SDS011;10517;50.742;4.224;2023-07-28T14:00:38;3.47;;;3.28;;
20711;SDS011;10517;50.742;4.224;2023-07-28T14:03:03;3.35;;;3.20;;
20711;SDS011;10517;50.742;4.224;2023-07-28T14:05:29;3.53;;;3.28;;
20711;SDS011;10517;50.742;4.224;2023-07-28T14:07:55;3.30;;;3.10;;
20711;SDS011;10517;50.742;4.224;2023-07-28T14:10:20;3.75;;;3.47;;
20711;SDS011;10517;50.742;4.224;2023-07-28T14:12:46;3.38;;;3.17;;
20711;SDS011;10517;50.742;4.224;2023-07-28T14:15:11;3.85;;;3.65;;
20711;SDS011;10517;50.742;4.224;2023-07-28T14:17:37;3.67;;;3.47;;
20711;SDS011;10517;50.742;4.224;2023-07-28T14:20:03;3.92;;;3.47;;
20711;SDS011;10517;50.742;4.224;2023-07-28T14:22:29;3.60;;;3.40;;
20711;SDS011;10517;50.742;4.224;2023-07-28T14:24:54;3.75;;;3.55;;
20711;SDS011;10517;50.742;4.224;2023-07-28T14:27:20;3.70;;;3.50;;
20711;SDS011;10517;50.742;4.224;2023-07-28T14:29:45;3.85;;;3.65;;
20711;SDS011;10517;50.742;4.224;2023-07-28T14:32:11;4.03;;;3.83;;
20711;SDS011;10517;50.742;4.224;2023-07-28T14:34:36;3.80;;;3.60;;
20711;SDS011;10517;50.742;4.224;2023-07-28T14:37:03;4.28;;;3.90;;
20711;SDS011;10517;50.742;4.224;2023-07-28T14:39:30;4.45;;;4.07;;
20711;SDS011;10517;50.742;4.224;2023-07-28T14:41:56;4.30;;;4.10;;
20711;SDS011;10517;50.742;4.224;2023-07-28T14:44:22;4.45;;;4.25;;
20711;SDS011;10517;50.742;4.224;2023-07-28T14:46:47;4.85;;;4.65;;
20711;SDS011;10517;50.742;4.224;2023-07-28T14:49:13;5.00;;;4.70;;
20711;SDS011;10517;50.742;4.224;2023-07-28T14:51:38;4.78;;;4.40;;
20711;SDS011;10517;50.742;4.224;2023-07-28T14:54:04;4.38;;;4.05;;
20711;SDS011;10517;50.742;4.224;2023-07-28T14:56:30;6.47;;;5.05;;
20711;SDS011;10517;50.742;4.224;2023-07-28T14:58:56;4.82;;;4.57;;
20711;SDS011;10517;50.742;4.224;2023-07-28T15:01:23;5.72;;;5.38;;
20711;SDS011;10517;50.742;4.224;2023-07-28T15:03:48;5.10;;;4.90;;